Time;durP1;ratioP1;P1;durP2;ratioP2;P2;SDS_P1;SDS_P2;PMS_P1;PMS_P2;Temp;Humidity;BMP_temperature;BMP_pressure;BME280_temperature;BME280_humidity;BME280_pressure;Samples;Min_cycle;Max_cycle;Signal;HPM_P1;HPM_P2
2023/01/08 00:01:31;;;;;;;5.27;3.10;;;;;;;8.88;100.00;100167.44;5262866;28;20029;-74
2023/01/08 00:04:02;;;;;;;6.33;3.43;;;;;;;8.87;100.00;100165.72;5261324;28;20029;-74
2023/01/08 00:06:34;;;;;;;6.10;3.30;;;;;;;8.88;100.00;100172.63;5262605;28;20029;-74
2023/01/08 00:09:05;;;;;;;6.67;2.83;;;;;;;8.84;100.00;100183.09;5262527;28;20051;-73
2023/01/08 00:11:37;;;;;;;5.27;2.90;;;;;;;8.81;100.00;100176.22;5262546;28;20071;-74
2023/01/08 00:14:09;;;;;;;8.33;3.40;;;;;;;8.87;100.00;100185.63;5261459;28;20029;-73
2023/01/08 00:16:40;;;;;;;15.57;3.90;;;;;;;8.87;100.00;100183.03;5262437;28;20087;-74
2023/01/08 00:19:12;;;;;;;7.33;3.53;;;;;;;8.88;100.00;100177.81;5261632;28;20072;-73
2023/01/08 00:21:43;;;;;;;7.03;2.50;;;;;;;8.93;100.00;100185.56;5261344;28;20480;-73
2023/01/08 00:24:14;;;;;;;7.63;3.13;;;;;;;8.97;100.00;100171.63;5261095;28;20457;-74
2023/01/08 00:26:46;;;;;;;5.53;2.97;;;;;;;8.98;100.00;100175.09;5262615;28;20041;-73
2023/01/08 00:29:17;;;;;;;6.57;3.20;;;;;;;9.00;100.00;100166.38;5262590;28;20116;-73
2023/01/08 00:31:48;;;;;;;10.40;3.63;;;;;;;9.00;100.00;100170.72;5261418;28;20048;-73
2023/01/08 00:34:20;;;;;;;5.67;3.23;;;;;;;9.02;100.00;100159.41;5261270;28;20032;-73
2023/01/08 00:36:51;;;;;;;8.17;3.07;;;;;;;9.05;100.00;100146.38;5262659;28;20028;-74
2023/01/08 00:39:23;;;;;;;7.23;3.00;;;;;;;9.05;100.00;100148.97;5262579;28;20111;-74
2023/01/08 00:41:54;;;;;;;4.63;2.70;;;;;;;9.07;100.00;100148.94;5262290;28;20464;-74
2023/01/08 00:44:25;;;;;;;6.87;3.80;;;;;;;9.10;100.00;100144.53;5261622;28;20051;-73
2023/01/08 00:46:57;;;;;;;9.57;2.83;;;;;;;9.06;100.00;100142.03;5262388;28;20464;-74
2023/01/08 00:49:28;;;;;;;6.93;3.40;;;;;;;9.03;100.00;100131.66;5262423;28;20116;-73
2023/01/08 00:52:00;;;;;;;7.20;3.07;;;;;;;9.03;100.00;100123.88;5262427;28;20029;-72
2023/01/08 00:54:31;;;;;;;10.37;4.27;;;;;;;9.05;100.00;100124.72;5263717;28;20040;-72
2023/01/08 00:57:03;;;;;;;8.10;3.13;;;;;;;9.02;100.00;100122.16;5265353;28;20040;-73
2023/01/08 00:59:34;;;;;;;8.80;3.70;;;;;;;9.04;100.00;100128.19;5266408;28;20036;-72
2023/01/08 01:02:05;;;;;;;5.80;3.50;;;;;;;9.03;100.00;100122.16;5266395;28;20035;-72
2023/01/08 01:04:37;;;;;;;6.20;3.33;;;;;;;9.00;100.00;100118.72;5266298;28;20052;-73
2023/01/08 01:07:09;;;;;;;8.90;3.20;;;;;;;8.98;100.00;100116.16;5266013;28;20036;-72
2023/01/08 01:09:40;;;;;;;7.87;4.23;;;;;;;9.00;100.00;100122.19;5266576;28;20072;-72
2023/01/08 01:12:11;;;;;;;7.27;3.30;;;;;;;9.06;100.00;100119.47;5266113;28;20044;-73
2023/01/08 01:14:43;;;;;;;8.03;2.97;;;;;;;9.03;100.00;100106.56;5265055;28;20115;-73
2023/01/08 01:17:15;;;;;;;8.23;4.13;;;;;;;9.06;100.00;100116.88;5266468;28;20029;-74
2023/01/08 01:19:46;;;;;;;5.67;3.30;;;;;;;9.05;100.00;100109.97;5265913;28;20472;-74
2023/01/08 01:22:17;;;;;;;7.20;3.10;;;;;;;9.05;100.00;100103.94;5266099;28;20079;-73
2023/01/08 01:24:49;;;;;;;5.03;3.00;;;;;;;9.03;100.00;100116.06;5265584;28;20060;-74
2023/01/08 01:27:20;;;;;;;4.00;2.80;;;;;;;9.02;100.00;100103.97;5265919;28;20033;-73
2023/01/08 01:29:52;;;;;;;5.47;3.00;;;;;;;9.04;100.00;100105.66;5264836;28;20056;-73
2023/01/08 01:32:24;;;;;;;6.10;3.47;;;;;;;9.00;100.00;100106.59;5265894;28;20464;-73
2023/01/08 01:34:55;;;;;;;7.33;4.10;;;;;;;9.02;100.00;100107.41;5265800;28;20033;-73
2023/01/08 01:37:26;;;;;;;5.87;2.93;;;;;;;9.06;100.00;100105.63;5264582;28;20060;-73
2023/01/08 01:39:58;;;;;;;8.47;3.43;;;;;;;9.10;100.00;100115.94;5265859;28;20488;-73
2023/01/08 01:42:38;;;;;;;11.33;3.57;;;;;;;9.09;100.00;100102.97;5265558;28;20040;-74
2023/01/08 01:45:15;;;;;;;6.55;3.33;;;;;;;9.07;100.00;100120.34;5265612;28;20124;-74
2023/01/08 01:48:02;;;;;;;6.35;3.13;;;;;;;8.93;100.00;100129.25;5265314;28;20111;-74
2023/01/08 01:50:49;;;;;;;5.60;2.92;;;;;;;8.76;100.00;100141.66;5265495;28;20494;-72
2023/01/08 01:53:27;;;;;;;7.13;3.00;;;;;;;8.62;100.00;100128.84;5265162;28;20036;-73
2023/01/08 01:56:01;;;;;;;6.55;2.55;;;;;;;8.37;100.00;100133.50;5265216;28;20039;-73
2023/01/08 01:58:33;;;;;;;5.45;2.60;;;;;;;8.19;100.00;100135.50;5265442;28;20036;-74
2023/01/08 02:01:08;;;;;;;6.00;2.57;;;;;;;8.07;100.00;100133.06;5265242;28;20032;-74
2023/01/08 02:03:40;;;;;;;5.40;2.55;;;;;;;7.88;100.00;100153.19;5270622;28;20025;-73
2023/01/08 02:06:35;;;;;;;5.00;2.50;;;;;;;7.79;100.00;100148.97;5271140;28;20079;-73
2023/01/08 02:09:28;;;;;;;5.18;2.00;;;;;;;7.59;100.00;100141.41;5265341;28;20535;-72
2023/01/08 02:12:43;;;;;;;5.97;2.30;;;;;;;7.49;100.00;100126.84;5266074;28;20469;-74
2023/01/08 02:15:40;;;;;;;8.27;2.30;;;;;;;7.33;100.00;100117.50;5264487;28;20491;-73
2023/01/08 02:18:25;;;;;;;2.92;2.00;;;;;;;7.19;100.00;100109.84;5265235;28;20078;-74
2023/01/08 02:21:05;;;;;;;5.43;1.98;;;;;;;7.10;100.00;100108.22;5265047;28;20036;-74
2023/01/08 02:24:24;;;;;;;4.00;1.85;;;;;;;7.05;100.00;100099.59;5264615;28;20025;-74
2023/01/08 02:26:58;;;;;;;6.63;1.80;;;;;;;6.99;100.00;100092.75;5255486;28;20080;-73
2023/01/08 02:29:31;;;;;;;5.15;2.03;;;;;;;6.96;100.00;100102.31;5264775;28;20029;-72
2023/01/08 02:32:03;;;;;;;7.43;2.53;;;;;;;6.96;100.00;100103.16;5263743;28;20104;-73
2023/01/08 02:34:34;;;;;;;4.10;1.97;;;;;;;6.94;100.00;100112.69;5280303;28;20144;-73
2023/01/08 02:37:07;;;;;;;7.57;2.10;;;;;;;6.92;100.00;100096.25;5264140;28;20115;-73
2023/01/08 02:39:45;;;;;;;;;;;;;;;6.88;100.00;100097.19;5263832;28;20025;-74
2023/01/08 02:42:40;;;;;;;9.70;2.03;;;;;;;6.89;100.00;100101.47;5264327;28;20378;-73
2023/01/08 02:45:45;;;;;;;8.18;2.25;;;;;;;6.86;100.00;100094.59;5264350;28;20057;-72
2023/01/08 02:48:30;;;;;;;6.63;2.10;;;;;;;6.87;100.00;100093.72;5264074;28;20099;-72
2023/01/08 02:51:16;;;;;;;6.13;1.40;;;;;;;6.83;100.00;100092.03;5264498;28;20029;-73
2023/01/08 02:53:50;;;;;;;6.22;1.80;;;;;;;6.83;100.00;100094.63;5263837;28;20029;-73
2023/01/08 02:56:25;;;;;;;6.10;1.70;;;;;;;6.84;100.00;100091.19;5264237;28;20041;-73
2023/01/08 02:58:58;;;;;;;8.23;1.83;;;;;;;6.80;100.00;100084.28;5262990;28;20029;-73
2023/01/08 03:01:32;;;;;;;;;;;;;;;6.78;100.00;100079.97;5264618;28;20060;-75
2023/01/08 03:04:09;;;;;;;9.63;2.20;;;;;;;6.72;100.00;100070.53;5264107;28;19970;-75
2023/01/08 03:06:42;;;;;;;9.88;2.63;;;;;;;6.70;100.00;100073.16;5264138;28;20017;-74
2023/01/08 03:09:15;;;;;;;6.30;2.63;;;;;;;6.66;100.00;100073.19;5264073;28;20053;-74
2023/01/08 03:11:56;;;;;;;9.88;2.00;;;;;;;6.68;100.00;100071.44;5263661;28;20037;-74
2023/01/08 03:14:34;;;;;;;7.65;2.83;;;;;;;6.63;100.00;100076.66;5262756;28;20059;-74
2023/01/08 03:17:25;;;;;;;5.35;1.80;;;;;;;6.61;100.00;100077.53;5263350;28;20153;-74
2023/01/08 03:20:02;;;;;;;6.03;1.67;;;;;;;6.62;100.00;100071.47;5264033;28;20025;-73
2023/01/08 03:22:39;;;;;;;6.63;1.70;;;;;;;6.57;100.00;100074.97;5262530;28;20028;-74
2023/01/08 03:25:13;;;;;;;7.85;2.00;;;;;;;6.58;100.00;100068.06;5263269;28;20403;-74
2023/01/08 03:27:48;;;;;;;7.20;2.33;;;;;;;6.59;100.00;100063.75;5263589;28;20108;-74
2023/01/08 03:30:20;;;;;;;7.80;2.20;;;;;;;6.61;100.00;100067.19;5263414;28;20094;-74
2023/01/08 03:32:54;;;;;;;6.63;2.10;;;;;;;6.57;100.00;100069.78;5263566;28;20499;-74
2023/01/08 03:35:28;;;;;;;6.85;2.45;;;;;;;6.59;100.00;100064.59;5263473;28;20392;-74
2023/01/08 03:38:06;;;;;;;4.95;1.55;;;;;;;6.57;100.00;100064.63;5262121;28;20033;-74
2023/01/08 03:40:42;;;;;;;8.90;2.22;;;;;;;6.59;100.00;100061.16;5263301;28;20035;-74
2023/01/08 03:43:14;;;;;;;7.25;1.80;;;;;;;6.57;100.00;100063.78;5263682;28;20029;-74
2023/01/08 03:45:53;;;;;;;5.23;1.90;;;;;;;6.58;100.00;100062.88;5262077;28;20033;-75
2023/01/08 03:48:28;;;;;;;7.15;1.80;;;;;;;6.64;100.00;100068.00;5263138;28;20108;-75
2023/01/08 03:51:00;;;;;;;7.20;2.28;;;;;;;6.61;100.00;100067.19;5263014;28;20073;-75
2023/01/08 03:53:31;;;;;;;7.60;1.97;;;;;;;6.61;100.00;100060.25;5262768;28;20460;-75
2023/01/08 03:56:03;;;;;;;6.80;1.63;;;;;;;6.62;100.00;100062.00;5263542;28;20491;-75
2023/01/08 03:58:34;;;;;;;10.00;2.73;;;;;;;6.63;100.00;100055.94;5262715;28;20182;-74
2023/01/08 04:01:06;;;;;;;10.03;2.10;;;;;;;6.64;100.00;100052.47;5262948;28;20029;-75
2023/01/08 04:03:37;;;;;;;8.77;2.60;;;;;;;6.64;100.00;100052.47;5263001;28;20047;-75
2023/01/08 04:06:08;;;;;;;7.87;2.63;;;;;;;6.66;100.00;100050.72;5263080;28;20021;-75
2023/01/08 04:08:40;;;;;;;7.73;2.17;;;;;;;6.67;100.00;100052.44;5262437;28;20057;-75
2023/01/08 04:11:11;;;;;;;6.20;1.70;;;;;;;6.65;100.00;100043.84;5262614;28;20025;-75
2023/01/08 04:13:42;;;;;;;7.47;2.20;;;;;;;6.60;100.00;100035.25;5262715;28;20029;-74
2023/01/08 04:16:14;;;;;;;5.83;2.10;;;;;;;6.59;100.00;100022.31;5262824;28;20112;-74
2023/01/08 04:18:45;;;;;;;6.80;2.07;;;;;;;6.59;100.00;100015.41;5262781;28;20502;-74
2023/01/08 04:21:16;;;;;;;5.77;2.00;;;;;;;6.59;100.00;100022.31;5262461;28;20036;-74
2023/01/08 04:23:48;;;;;;;6.07;2.10;;;;;;;6.63;100.00;100031.78;5262410;28;20032;-74
2023/01/08 04:26:19;;;;;;;6.97;2.30;;;;;;;6.67;100.00;100036.06;5262742;28;20120;-75
2023/01/08 04:28:50;;;;;;;8.30;2.53;;;;;;;6.69;100.00;100037.75;5262075;28;20108;-73
2023/01/08 04:31:22;;;;;;;7.93;2.27;;;;;;;6.71;100.00;100035.16;5262667;28;20067;-74
2023/01/08 04:33:53;;;;;;;9.30;2.30;;;;;;;6.70;100.00;100015.31;5262596;28;20139;-74
2023/01/08 04:36:25;;;;;;;6.53;2.47;;;;;;;6.75;100.00;100019.56;5262617;28;20033;-74
2023/01/08 04:38:56;;;;;;;5.73;2.10;;;;;;;6.75;100.00;100011.78;5262708;28;20033;-73
2023/01/08 04:41:28;;;;;;;6.97;2.03;;;;;;;6.76;100.00;100015.22;5262665;28;20428;-74
2023/01/08 04:43:59;;;;;;;7.70;3.00;;;;;;;6.74;100.00;100029.94;5262603;28;20068;-74
2023/01/08 04:46:30;;;;;;;6.80;2.30;;;;;;;6.73;100.00;100015.28;5262239;28;20112;-74
2023/01/08 04:49:02;;;;;;;8.00;2.77;;;;;;;6.73;100.00;100013.56;5262681;28;20388;-74
2023/01/08 04:51:33;;;;;;;6.40;2.40;;;;;;;6.71;100.00;100023.06;5262121;28;20140;-74
2023/01/08 04:54:05;;;;;;;5.77;2.23;;;;;;;6.73;100.00;100016.13;5262194;28;20472;-74
2023/01/08 04:56:36;;;;;;;6.47;2.40;;;;;;;6.73;100.00;100034.28;5262543;28;20040;-74
2023/01/08 04:59:07;;;;;;;6.13;2.30;;;;;;;6.78;100.00;100025.59;5262471;28;20491;-74
2023/01/08 05:01:39;;;;;;;5.83;2.43;;;;;;;6.78;100.00;100023.88;5262432;28;20472;-74
2023/01/08 05:04:10;;;;;;;4.13;2.07;;;;;;;6.79;100.00;100020.38;5262364;28;20060;-73
2023/01/08 05:06:42;;;;;;;3.93;1.63;;;;;;;6.79;100.00;100030.75;5262137;28;20115;-73
2023/01/08 05:09:13;;;;;;;5.60;1.93;;;;;;;6.79;100.00;100029.91;5262331;28;20128;-73
2023/01/08 05:11:44;;;;;;;8.13;1.60;;;;;;;6.73;100.00;100026.50;5262071;28;20546;-74
2023/01/08 05:14:16;;;;;;;4.80;1.70;;;;;;;6.71;100.00;100024.78;5262248;28;20067;-73
2023/01/08 05:16:47;;;;;;;5.80;1.50;;;;;;;6.70;100.00;100034.28;5262062;28;20040;-73
2023/01/08 05:19:18;;;;;;;3.73;2.23;;;;;;;6.71;100.00;100032.56;5262261;28;20033;-74
2023/01/08 05:21:50;;;;;;;5.43;1.33;;;;;;;6.74;100.00;100028.19;5262455;28;20025;-74
2023/01/08 05:24:21;;;;;;;3.10;1.20;;;;;;;6.70;100.00;100023.94;5261664;28;20123;-74
2023/01/08 05:26:53;;;;;;;5.90;1.50;;;;;;;6.74;100.00;100017.84;5262203;28;20045;-75
2023/01/08 05:29:24;;;;;;;2.73;1.57;;;;;;;6.75;100.00;100018.72;5263799;28;20436;-76
2023/01/08 05:31:55;;;;;;;4.97;1.93;;;;;;;6.77;100.00;100013.53;5262671;28;20060;-75
2023/01/08 05:34:27;;;;;;;5.33;2.10;;;;;;;6.86;100.00;100009.09;5261843;28;20114;-75
2023/01/08 05:36:58;;;;;;;4.43;1.60;;;;;;;6.88;100.00;99993.56;5262047;28;20048;-76
2023/01/08 05:39:29;;;;;;;4.23;1.50;;;;;;;6.86;100.00;99993.56;5262069;28;20468;-75
2023/01/08 05:42:01;;;;;;;6.03;1.73;;;;;;;6.79;100.00;100004.00;5264276;28;20535;-75
2023/01/08 05:44:33;;;;;;;4.73;1.43;;;;;;;6.68;100.00;100006.69;5264806;28;20036;-75
2023/01/08 05:47:04;;;;;;;6.23;2.00;;;;;;;6.62;100.00;100007.59;5264275;28;20491;-74
2023/01/08 05:49:35;;;;;;;9.20;1.70;;;;;;;6.57;100.00;100007.66;5265630;28;20487;-75
2023/01/08 05:52:07;;;;;;;5.73;1.63;;;;;;;6.49;100.00;100000.84;5264398;28;20099;-75
2023/01/08 05:54:38;;;;;;;6.93;1.83;;;;;;;6.44;100.00;100007.75;5265006;28;20032;-75
2023/01/08 05:57:10;;;;;;;6.87;2.40;;;;;;;6.37;100.00;100007.81;5265491;28;20456;-74
2023/01/08 05:59:41;;;;;;;7.20;1.80;;;;;;;6.39;100.00;100011.25;5265667;28;20033;-74
2023/01/08 06:02:13;;;;;;;5.83;2.27;;;;;;;6.32;100.00;100013.91;5265029;28;20092;-75
2023/01/08 06:04:44;;;;;;;6.20;2.03;;;;;;;6.30;100.00;100016.50;5264160;28;20032;-74
2023/01/08 06:07:16;;;;;;;3.70;1.60;;;;;;;6.30;100.00;100019.09;5264153;28;20029;-74
2023/01/08 06:09:47;;;;;;;5.80;2.10;;;;;;;6.23;100.00;100024.31;5271422;28;20055;-74
2023/01/08 06:12:18;;;;;;;9.23;2.03;;;;;;;6.17;100.00;100031.25;5286015;28;20029;-74
2023/01/08 06:14:50;;;;;;;8.30;2.40;;;;;;;6.09;100.00;100034.78;5285866;28;20032;-75
2023/01/08 06:17:21;;;;;;;6.00;1.80;;;;;;;6.02;100.00;100024.47;5285966;28;20570;-75
2023/01/08 06:19:53;;;;;;;9.83;2.20;;;;;;;5.99;100.00;100032.25;5285911;28;20525;-75
2023/01/08 06:22:24;;;;;;;4.53;2.10;;;;;;;5.94;100.00;100023.63;5285976;28;20108;-74
2023/01/08 06:24:56;;;;;;;10.67;2.17;;;;;;;5.92;100.00;100017.56;5285498;28;20055;-74
2023/01/08 06:27:27;;;;;;;4.83;2.23;;;;;;;5.95;100.00;100025.31;5285878;28;20064;-74
2023/01/08 06:29:59;;;;;;;5.87;1.80;;;;;;;5.88;100.00;100038.31;5285817;28;20025;-74
2023/01/08 06:32:30;;;;;;;10.13;2.30;;;;;;;5.88;100.00;100035.75;5285407;28;20032;-75
2023/01/08 06:35:02;;;;;;;6.60;1.67;;;;;;;5.85;100.00;100039.19;5285435;28;20124;-75
2023/01/08 06:37:33;;;;;;;5.83;1.80;;;;;;;5.79;100.00;100050.41;5285604;28;20490;-74
2023/01/08 06:40:05;;;;;;;8.80;2.27;;;;;;;5.75;100.00;100047.88;5285511;28;20043;-74
2023/01/08 06:42:36;;;;;;;8.10;2.55;;;;;;;5.73;100.00;100050.47;5285061;28;20468;-74
2023/01/08 06:45:08;;;;;;;6.20;2.50;;;;;;;5.67;100.00;100047.91;5285123;28;20025;-74
2023/01/08 06:47:40;;;;;;;5.93;1.90;;;;;;;5.66;100.00;100048.75;5285250;28;20036;-74
2023/01/08 06:50:11;;;;;;;7.37;2.57;;;;;;;5.61;100.00;100045.34;5284407;28;20135;-74
2023/01/08 06:52:43;;;;;;;11.13;2.80;;;;;;;5.62;100.00;100052.25;5284430;28;20032;-74
2023/01/08 06:55:14;;;;;;;9.37;2.40;;;;;;;5.62;100.00;100049.66;5284755;28;20029;-74
2023/01/08 06:57:45;;;;;;;6.00;3.10;;;;;;;5.60;100.00;100051.38;5285157;28;20047;-74
2023/01/08 07:00:17;;;;;;;11.27;2.70;;;;;;;5.62;100.00;100052.25;5284785;28;20032;-74
2023/01/08 07:02:49;;;;;;;8.97;2.63;;;;;;;5.65;100.00;100057.38;5285028;28;20426;-74
2023/01/08 07:05:21;;;;;;;8.40;2.45;;;;;;;5.68;100.00;100054.78;5284814;28;20033;-74
2023/01/08 07:07:53;;;;;;;13.43;3.38;;;;;;;5.68;100.00;100059.09;5284554;28;20087;-74
2023/01/08 07:10:25;;;;;;;9.60;3.07;;;;;;;5.67;100.00;100053.06;5284873;28;20059;-74
2023/01/08 07:12:57;;;;;;;11.15;3.10;;;;;;;5.66;100.00;100043.59;5285128;28;20070;-73
2023/01/08 07:15:28;;;;;;;6.15;3.00;;;;;;;5.71;100.00;100047.00;5284702;28;20060;-74
2023/01/08 07:18:04;;;;;;;10.20;2.57;;;;;;;5.72;100.00;100040.97;5284792;28;20507;-74
2023/01/08 07:20:36;;;;;;;8.25;2.97;;;;;;;5.73;100.00;100039.25;5283384;28;20052;-74
2023/01/08 07:23:10;;;;;;;9.70;3.53;;;;;;;5.76;100.00;100040.06;5284663;28;20083;-74
2023/01/08 07:25:42;;;;;;;9.77;2.85;;;;;;;5.74;100.00;100036.66;5283882;28;20283;-75
2023/01/08 07:28:13;;;;;;;7.83;2.27;;;;;;;5.75;100.00;100042.69;5284497;28;20036;-74
2023/01/08 07:30:45;;;;;;;6.97;2.33;;;;;;;5.73;100.00;100045.28;5284444;28;20033;-74
2023/01/08 07:33:16;;;;;;;8.27;3.03;;;;;;;5.71;100.00;100046.16;5284408;28;20031;-74
2023/01/08 07:35:54;;;;;;;7.37;2.27;;;;;;;5.66;100.00;100052.19;5284276;28;20029;-74
2023/01/08 07:38:26;;;;;;;10.48;3.63;;;;;;;5.64;100.00;100040.16;5282919;28;20036;-73
2023/01/08 07:40:57;;;;;;;14.37;3.20;;;;;;;5.62;100.00;100041.91;5283926;28;20476;-73
2023/01/08 07:43:29;;;;;;;18.93;4.67;;;;;;;5.55;100.00;100048.78;5284041;28;20040;-73
2023/01/08 07:46:02;;;;;;;8.70;2.50;;;;;;;5.48;100.00;100042.78;5283795;28;20353;-73
2023/01/08 07:48:34;;;;;;;11.48;2.33;;;;;;;5.46;100.00;100044.53;5284035;28;20029;-74
2023/01/08 07:51:07;;;;;;;10.80;3.53;;;;;;;5.47;100.00;100042.81;5284004;28;20039;-74
2023/01/08 07:53:38;;;;;;;6.13;2.03;;;;;;;5.43;100.00;100033.34;5282570;28;20061;-75
2023/01/08 07:56:10;;;;;;;12.73;2.67;;;;;;;5.42;100.00;100050.56;5282367;28;20040;-75
2023/01/08 07:58:41;;;;;;;10.57;2.83;;;;;;;5.42;100.00;100039.38;5283312;28;20074;-74
2023/01/08 08:01:14;;;;;;;11.27;2.30;;;;;;;5.42;100.00;100029.03;5283879;28;20028;-74
2023/01/08 08:03:45;;;;;;;5.10;1.73;;;;;;;5.43;100.00;100036.78;5282135;28;20036;-74
2023/01/08 08:06:16;;;;;;;12.30;2.67;;;;;;;5.43;100.00;100034.22;5276762;28;20029;-74
2023/01/08 08:08:48;;;;;;;9.30;3.87;;;;;;;5.51;100.00;100023.00;5281120;28;20071;-74
2023/01/08 08:11:19;;;;;;;9.50;2.67;;;;;;;5.56;100.00;100013.47;5282550;28;20029;-75
2023/01/08 08:13:50;;;;;;;15.07;3.70;;;;;;;5.64;100.00;100017.75;5281936;28;20032;-74
2023/01/08 08:16:22;;;;;;;9.43;2.30;;;;;;;5.73;100.00;100013.38;5281256;28;20037;-73
2023/01/08 08:18:53;;;;;;;7.90;2.43;;;;;;;5.82;100.00;100008.16;5281801;28;20064;-74
2023/01/08 08:21:25;;;;;;;5.00;1.93;;;;;;;5.91;100.00;100000.34;5283159;28;20040;-73
2023/01/08 08:23:56;;;;;;;10.30;2.40;;;;;;;6.02;100.00;100001.19;5281839;28;20025;-74
2023/01/08 08:26:28;;;;;;;13.60;2.33;;;;;;;6.12;100.00;100001.97;5282731;28;20344;-73
2023/01/08 08:28:59;;;;;;;13.63;3.73;;;;;;;6.20;100.00;100000.19;5281155;28;20033;-73
2023/01/08 08:31:30;;;;;;;9.07;2.47;;;;;;;6.22;100.00;100002.75;5281875;28;20028;-74
2023/01/08 08:34:02;;;;;;;14.93;2.93;;;;;;;6.21;100.00;100011.38;5282707;28;20412;-74
2023/01/08 08:36:33;;;;;;;11.50;2.93;;;;;;;6.20;100.00;100001.91;5282911;28;20033;-74
2023/01/08 08:39:05;;;;;;;9.70;2.60;;;;;;;6.16;100.00;100006.25;5288755;28;20071;-74
2023/01/08 08:41:36;;;;;;;15.53;2.80;;;;;;;6.14;100.00;100005.41;5298789;28;20103;-74
2023/01/08 08:44:08;;;;;;;6.87;2.30;;;;;;;6.09;100.00;100009.75;5295147;28;20060;-73
2023/01/08 08:46:39;;;;;;;7.77;2.87;;;;;;;6.12;100.00;100006.31;5288771;28;20033;-75
2023/01/08 08:49:11;;;;;;;14.57;2.47;;;;;;;6.13;100.00;100001.09;5284060;28;20032;-73
2023/01/08 08:51:42;;;;;;;14.67;3.27;;;;;;;6.16;100.00;100002.81;5285310;28;20060;-74
2023/01/08 08:54:13;;;;;;;6.93;2.10;;;;;;;6.15;100.00;100001.94;5283730;28;20021;-74
2023/01/08 08:56:47;;;;;;;9.43;2.27;;;;;;;6.13;100.00;99995.91;5285626;28;20085;-74
2023/01/08 08:59:18;;;;;;;13.18;2.50;;;;;;;6.09;100.00;99991.63;5284758;28;20467;-74
2023/01/08 09:01:50;;;;;;;10.10;2.70;;;;;;;6.04;100.00;99985.66;5283964;28;20107;-74
2023/01/08 09:04:21;;;;;;;6.00;2.47;;;;;;;5.98;100.00;99988.28;5266800;28;20487;-74
2023/01/08 09:06:52;;;;;;;9.97;2.30;;;;;;;5.91;100.00;99996.88;5285201;28;20399;-75
2023/01/08 09:09:25;;;;;;;8.50;2.93;;;;;;;5.84;100.00;99981.44;5282766;28;20057;-74
2023/01/08 09:11:56;;;;;;;9.30;2.88;;;;;;;5.82;100.00;99982.31;5285156;28;20063;-73
2023/01/08 09:14:28;;;;;;;12.47;3.40;;;;;;;5.80;100.00;99982.31;5284663;28;20056;-74
2023/01/08 09:16:59;;;;;;;11.03;3.17;;;;;;;5.79;100.00;99982.31;5287052;28;20063;-74
2023/01/08 09:19:30;;;;;;;12.97;2.97;;;;;;;5.80;100.00;99974.56;5270460;28;20039;-74
2023/01/08 09:22:02;;;;;;;10.27;2.47;;;;;;;5.82;100.00;99985.75;5287615;28;20028;-74
2023/01/08 09:24:33;;;;;;;7.23;2.47;;;;;;;5.80;100.00;99978.88;5284923;28;20095;-74
2023/01/08 09:27:04;;;;;;;15.50;3.23;;;;;;;5.81;100.00;99978.00;5285624;28;20040;-74
2023/01/08 09:29:36;;;;;;;10.43;3.33;;;;;;;5.83;100.00;99974.53;5286073;28;20498;-73
2023/01/08 09:32:08;;;;;;;8.33;2.90;;;;;;;5.88;100.00;99971.06;5290023;28;20371;-74
2023/01/08 09:34:39;;;;;;;7.33;2.43;;;;;;;5.88;100.00;99971.06;5286096;28;20241;-73
2023/01/08 09:37:11;;;;;;;7.77;2.80;;;;;;;5.90;100.00;99959.81;5286663;28;20040;-74
2023/01/08 09:39:42;;;;;;;10.73;2.53;;;;;;;5.90;100.00;99962.41;5284798;28;20032;-75
2023/01/08 09:42:15;;;;;;;11.23;2.67;;;;;;;5.92;100.00;99960.66;5286835;28;20560;-73
2023/01/08 09:44:48;;;;;;;8.70;2.78;;;;;;;5.94;100.00;99952.91;5285181;28;20380;-74
2023/01/08 09:47:22;;;;;;;9.82;3.15;;;;;;;5.93;100.00;99953.78;5286077;28;20036;-73
2023/01/08 09:49:58;;;;;;;11.13;3.15;;;;;;;5.96;100.00;99951.19;5286159;28;20040;-74
2023/01/08 09:52:30;;;;;;;9.95;2.72;;;;;;;5.98;100.00;99955.50;5287157;28;20038;-75
2023/01/08 09:55:02;;;;;;;9.15;2.30;;;;;;;6.06;100.00;99955.44;5283760;28;20484;-74
2023/01/08 09:57:34;;;;;;;11.30;3.25;;;;;;;6.09;100.00;99941.63;5287166;28;20029;-75
2023/01/08 10:00:14;;;;;;;14.13;2.57;;;;;;;6.19;100.00;99961.38;5285685;28;20386;-76
2023/01/08 10:02:45;;;;;;;9.23;2.42;;;;;;;6.23;100.00;99955.31;5284647;28;20472;-75
2023/01/08 10:05:17;;;;;;;9.77;2.87;;;;;;;6.26;100.00;99944.91;5285992;28;20027;-74
2023/01/08 10:07:48;;;;;;;8.83;3.07;;;;;;;6.32;100.00;99944.88;5289222;28;20049;-74
2023/01/08 10:10:26;;;;;;;8.17;3.00;;;;;;;6.38;100.00;99938.78;5303848;28;20036;-74
2023/01/08 10:12:58;;;;;;;9.25;2.55;;;;;;;6.48;100.00;99945.59;5288429;28;20103;-73
2023/01/08 10:15:30;;;;;;;11.60;3.10;;;;;;;6.51;100.00;99935.19;5287918;28;20121;-73
2023/01/08 10:18:04;;;;;;;8.53;2.77;;;;;;;6.60;100.00;99941.16;5288774;28;20278;-73
2023/01/08 10:20:38;;;;;;;7.47;2.60;;;;;;;6.73;100.00;99935.84;5290571;28;20024;-74
2023/01/08 10:23:13;;;;;;;7.45;2.75;;;;;;;6.82;100.00;99934.88;5286271;28;20040;-73
2023/01/08 10:25:55;;;;;;;9.95;2.17;;;;;;;6.91;100.00;99924.41;5286332;28;20021;-73
2023/01/08 10:28:36;;;;;;;10.48;2.38;;;;;;;6.92;100.00;99923.56;5285770;28;20036;-73
2023/01/08 10:31:13;;;;;;;7.68;2.58;;;;;;;6.92;100.00;99933.91;5286074;28;20036;-73
2023/01/08 10:33:48;;;;;;;8.07;3.13;;;;;;;7.07;100.00;99929.44;5286031;28;20028;-72
2023/01/08 10:36:23;;;;;;;12.50;2.35;;;;;;;7.28;100.00;99926.56;5286163;28;20028;-73
2023/01/08 10:39:00;;;;;;;4.53;1.48;;;;;;;7.52;100.00;99929.69;5283304;28;20405;-73
2023/01/08 10:41:38;;;;;;;7.78;1.92;;;;;;;7.49;99.06;99914.19;5285245;28;20029;-73
2023/01/08 10:44:16;;;;;;;5.30;2.10;;;;;;;7.89;98.57;99911.00;5284652;28;20029;-73
2023/01/08 10:46:52;;;;;;;7.03;1.50;;;;;;;8.77;97.36;99904.28;5283186;28;20081;-73
2023/01/08 10:49:41;;;;;;;2.03;1.20;;;;;;;9.41;92.99;99909.88;5284116;28;20107;-73
2023/01/08 10:52:24;;;;;;;5.97;2.10;;;;;;;10.10;87.90;99896.16;5284042;28;20059;-73
2023/01/08 10:54:55;;;;;;;2.70;1.30;;;;;;;10.50;85.55;99893.41;5282375;28;20032;-74
2023/01/08 10:57:29;;;;;;;3.60;1.60;;;;;;;10.89;82.45;99895.78;5284379;28;20498;-73
2023/01/08 11:00:01;;;;;;;3.55;1.50;;;;;;;11.19;78.79;99892.34;5282279;28;20124;-73
2023/01/08 11:02:37;;;;;;;2.17;1.10;;;;;;;11.53;76.60;99892.19;5284926;28;20490;-73
2023/01/08 11:05:10;;;;;;;3.83;1.50;;;;;;;11.70;74.73;99882.97;5283756;28;20025;-73
2023/01/08 11:07:42;;;;;;;1.67;1.08;;;;;;;11.57;73.00;99885.94;5282907;28;20033;-73
2023/01/08 11:10:22;;;;;;;5.40;1.20;;;;;;;11.65;73.13;99889.16;5283744;28;20033;-73
2023/01/08 11:13:06;;;;;;;2.88;0.88;;;;;;;11.68;72.33;99877.78;5284029;28;20040;-73
2023/01/08 11:15:39;;;;;;;1.23;0.90;;;;;;;11.63;70.84;99877.94;5282976;28;20063;-73
2023/01/08 11:18:11;;;;;;;1.17;0.88;;;;;;;11.94;70.52;99869.13;5283367;28;20208;-73
2023/01/08 11:20:44;;;;;;;1.93;1.00;;;;;;;12.32;69.93;99866.16;5283782;28;20364;-73
2023/01/08 11:23:25;;;;;;;2.05;1.08;;;;;;;12.40;68.24;99854.50;5281861;28;20078;-72
2023/01/08 11:26:07;;;;;;;1.80;0.90;;;;;;;12.62;68.99;99855.50;5283013;28;20055;-72
2023/01/08 11:29:06;;;;;;;1.55;0.98;;;;;;;12.66;66.95;99850.09;5283091;28;20051;-72
2023/01/08 11:31:47;;;;;;;4.35;1.15;;;;;;;12.74;67.28;99845.44;5280897;28;20060;-73
2023/01/08 11:34:33;;;;;;;1.05;0.90;;;;;;;12.63;66.68;99847.59;5281831;28;20041;-72
2023/01/08 11:37:18;;;;;;;2.38;0.82;;;;;;;12.77;66.41;99844.50;5282462;28;20515;-72
2023/01/08 11:39:52;;;;;;;1.35;0.88;;;;;;;13.07;65.64;99849.47;5281550;28;20032;-72
2023/01/08 11:42:38;;;;;;;1.88;0.90;;;;;;;13.24;64.42;99835.75;5283586;28;20020;-72
2023/01/08 11:45:30;;;;;;;1.58;1.20;;;;;;;12.97;63.11;99829.81;5281756;28;20025;-72
2023/01/08 11:48:20;;;;;;;1.95;1.05;;;;;;;13.38;64.68;99830.84;5282245;28;20533;-72
2023/01/08 11:51:25;;;;;;;4.43;1.17;;;;;;;13.90;62.36;99830.50;5283254;28;20406;-72
2023/01/08 11:54:28;;;;;;;6.75;1.38;;;;;;;13.66;61.32;99824.50;5281463;28;20060;-73
2023/01/08 11:57:08;;;;;;;2.90;1.23;;;;;;;13.75;61.09;99825.88;5282984;28;20090;-72
2023/01/08 11:59:42;;;;;;;2.40;1.10;;;;;;;13.03;62.32;99816.50;5281936;28;20032;-71